sensor_id;sensor_type;location;lat;lon;timestamp;temperature;humidity
15666;DHT22;20725;51.196;3.510;2022-11-15T00:00:29;10.10;99.90
15666;DHT22;20725;51.196;3.510;2022-11-15T00:03:01;10.20;99.90
15666;DHT22;20725;51.196;3.510;2022-11-15T00:05:33;10.20;99.90
15666;DHT22;20725;51.196;3.510;2022-11-15T00:08:02;10.30;99.90
15666;DHT22;20725;51.196;3.510;2022-11-15T00:10:30;10.30;99.90
15666;DHT22;20725;51.196;3.510;2022-11-15T00:12:59;10.30;99.90
15666;DHT22;20725;51.196;3.510;2022-11-15T00:15:33;10.30;99.90
15666;DHT22;20725;51.196;3.510;2022-11-15T00:18:04;10.20;99.90
15666;DHT22;20725;51.196;3.510;2022-11-15T00:20:34;10.20;99.90
15666;DHT22;20725;51.196;3.510;2022-11-15T00:23:06;10.20;99.90
15666;DHT22;20725;51.196;3.510;2022-11-15T00:25:38;10.20;99.90
15666;DHT22;20725;51.196;3.510;2022-11-15T00:28:08;10.20;99.90
15666;DHT22;20725;51.196;3.510;2022-11-15T00:30:41;10.30;99.90
15666;DHT22;20725;51.196;3.510;2022-11-15T00:33:12;10.30;99.90
15666;DHT22;20725;51.196;3.510;2022-11-15T00:35:48;10.40;99.90
15666;DHT22;20725;51.196;3.510;2022-11-15T00:38:19;10.40;99.90
15666;DHT22;20725;51.196;3.510;2022-11-15T00:40:51;10.50;99.90
15666;DHT22;20725;51.196;3.510;2022-11-15T00:43:25;10.50;99.90
15666;DHT22;20725;51.196;3.510;2022-11-15T00:45:52;10.60;99.90
15666;DHT22;20725;51.196;3.510;2022-11-15T00:48:23;10.60;99.90
15666;DHT22;20725;51.196;3.510;2022-11-15T00:50:58;10.70;99.90
15666;DHT22;20725;51.196;3.510;2022-11-15T00:53:33;10.70;99.90
15666;DHT22;20725;51.196;3.510;2022-11-15T00:56:05;10.60;99.90
15666;DHT22;20725;51.196;3.510;2022-11-15T00:58:49;10.70;99.90
15666;DHT22;20725;51.196;3.510;2022-11-15T01:06:21;10.80;99.90
15666;DHT22;20725;51.196;3.510;2022-11-15T01:08:48;10.90;99.90
15666;DHT22;20725;51.196;3.510;2022-11-15T01:11:16;10.80;99.90
15666;DHT22;20725;51.196;3.510;2022-11-15T01:13:42;10.70;99.90
15666;DHT22;20725;51.196;3.510;2022-11-15T01:16:14;10.60;99.90
15666;DHT22;20725;51.196;3.510;2022-11-15T01:18:42;10.70;99.90
15666;DHT22;20725;51.196;3.510;2022-11-15T01:21:10;10.70;99.90
15666;DHT22;20725;51.196;3.510;2022-11-15T01:23:38;10.70;99.90
15666;DHT22;20725;51.196;3.510;2022-11-15T01:26:07;10.60;99.90
15666;DHT22;20725;51.196;3.510;2022-11-15T01:28:38;10.70;99.90
15666;DHT22;20725;51.196;3.510;2022-11-15T01:31:06;10.60;99.90
15666;DHT22;20725;51.196;3.510;2022-11-15T01:33:35;10.70;99.90
15666;DHT22;20725;51.196;3.510;2022-11-15T01:36:04;10.60;99.90
15666;DHT22;20725;51.196;3.510;2022-11-15T01:38:31;10.60;99.90
15666;DHT22;20725;51.196;3.510;2022-11-15T01:40:58;10.70;99.90
15666;DHT22;20725;51.196;3.510;2022-11-15T01:43:27;10.70;99.90
15666;DHT22;20725;51.196;3.510;2022-11-15T01:45:56;10.60;99.90
15666;DHT22;20725;51.196;3.510;2022-11-15T01:48:29;10.70;99.90
15666;DHT22;20725;51.196;3.510;2022-11-15T01:50:58;10.70;99.90
15666;DHT22;20725;51.196;3.510;2022-11-15T01:53:26;10.70;99.90
15666;DHT22;20725;51.196;3.510;2022-11-15T01:55:54;10.60;99.90
15666;DHT22;20725;51.196;3.510;2022-11-15T01:58:21;10.70;99.90
15666;DHT22;20725;51.196;3.510;2022-11-15T02:00:49;10.70;99.90
15666;DHT22;20725;51.196;3.510;2022-11-15T02:03:16;10.70;99.90
15666;DHT22;20725;51.196;3.510;2022-11-15T02:05:43;10.70;99.90
15666;DHT22;20725;51.196;3.510;2022-11-15T02:08:12;10.60;99.90
15666;DHT22;20725;51.196;3.510;2022-11-15T02:10:45;10.70;99.90
15666;DHT22;20725;51.196;3.510;2022-11-15T02:13:13;10.70;99.90
15666;DHT22;20725;51.196;3.510;2022-11-15T02:15:43;10.60;99.90
15666;DHT22;20725;51.196;3.510;2022-11-15T02:18:18;10.70;99.90
15666;DHT22;20725;51.196;3.510;2022-11-15T02:20:57;10.70;99.90
15666;DHT22;20725;51.196;3.510;2022-11-15T02:23:55;10.70;99.90
15666;DHT22;20725;51.196;3.510;2022-11-15T02:29:46;10.70;99.90
15666;DHT22;20725;51.196;3.510;2022-11-15T02:32:20;10.60;99.90
15666;DHT22;20725;51.196;3.510;2022-11-15T02:34:54;10.70;99.90
15666;DHT22;20725;51.196;3.510;2022-11-15T02:37:32;10.70;99.90
15666;DHT22;20725;51.196;3.510;2022-11-15T02:40:07;10.60;99.90
15666;DHT22;20725;51.196;3.510;2022-11-15T02:42:41;10.60;99.90
15666;DHT22;20725;51.196;3.510;2022-11-15T02:45:30;10.70;99.90
15666;DHT22;20725;51.196;3.510;2022-11-15T02:47:59;10.70;99.90
15666;DHT22;20725;51.196;3.510;2022-11-15T02:50:29;10.60;99.90
15666;DHT22;20725;51.196;3.510;2022-11-15T02:52:58;10.60;99.90
15666;DHT22;20725;51.196;3.510;2022-11-15T02:55:27;10.60;99.90
15666;DHT22;20725;51.196;3.510;2022-11-15T02:58:19;10.60;99.90
15666;DHT22;20725;51.196;3.510;2022-11-15T03:00:57;10.60;99.90
15666;DHT22;20725;51.196;3.510;2022-11-15T03:03:38;10.60;99.90
15666;DHT22;20725;51.196;3.510;2022-11-15T03:06:17;10.50;99.90
15666;DHT22;20725;51.196;3.510;2022-11-15T03:08:54;10.50;99.90
15666;DHT22;20725;51.196;3.510;2022-11-15T03:11:23;10.40;99.90
15666;DHT22;20725;51.196;3.510;2022-11-15T03:14:01;10.40;99.90
15666;DHT22;20725;51.196;3.510;2022-11-15T03:16:33;10.40;99.90
15666;DHT22;20725;51.196;3.510;2022-11-15T03:19:09;10.30;99.90
15666;DHT22;20725;51.196;3.510;2022-11-15T03:21:39;10.30;99.90
15666;DHT22;20725;51.196;3.510;2022-11-15T03:24:08;10.20;99.90
15666;DHT22;20725;51.196;3.510;2022-11-15T03:26:37;10.20;99.90
15666;DHT22;20725;51.196;3.510;2022-11-15T03:29:09;10.20;99.90
15666;DHT22;20725;51.196;3.510;2022-11-15T03:31:41;10.20;99.90
15666;DHT22;20725;51.196;3.510;2022-11-15T03:34:25;10.20;99.90
15666;DHT22;20725;51.196;3.510;2022-11-15T03:36:53;10.10;99.90
15666;DHT22;20725;51.196;3.510;2022-11-15T03:39:20;10.10;99.90
15666;DHT22;20725;51.196;3.510;2022-11-15T03:41:50;10.00;99.90
15666;DHT22;20725;51.196;3.510;2022-11-15T03:44:31;10.00;99.90
15666;DHT22;20725;51.196;3.510;2022-11-15T03:47:03;9.90;99.90
15666;DHT22;20725;51.196;3.510;2022-11-15T03:49:35;9.90;99.90
15666;DHT22;20725;51.196;3.510;2022-11-15T03:52:04;9.90;99.90
15666;DHT22;20725;51.196;3.510;2022-11-15T03:54:31;9.90;99.90
15666;DHT22;20725;51.196;3.510;2022-11-15T03:56:58;9.80;99.90
15666;DHT22;20725;51.196;3.510;2022-11-15T03:59:24;9.80;99.90
15666;DHT22;20725;51.196;3.510;2022-11-15T04:01:52;9.80;99.90
15666;DHT22;20725;51.196;3.510;2022-11-15T04:04:18;9.70;99.90
15666;DHT22;20725;51.196;3.510;2022-11-15T04:06:47;9.70;99.90
15666;DHT22;20725;51.196;3.510;2022-11-15T04:09:13;9.60;99.90
15666;DHT22;20725;51.196;3.510;2022-11-15T04:11:40;9.70;99.90
15666;DHT22;20725;51.196;3.510;2022-11-15T04:14:07;9.60;99.90
15666;DHT22;20725;51.196;3.510;2022-11-15T04:16:34;9.60;99.90
15666;DHT22;20725;51.196;3.510;2022-11-15T04:19:01;9.50;99.90
15666;DHT22;20725;51.196;3.510;2022-11-15T04:21:46;9.50;99.90
15666;DHT22;20725;51.196;3.510;2022-11-15T04:24:31;9.40;99.90
15666;DHT22;20725;51.196;3.510;2022-11-15T04:26:58;9.40;99.90
15666;DHT22;20725;51.196;3.510;2022-11-15T04:29:25;9.30;99.90
15666;DHT22;20725;51.196;3.510;2022-11-15T04:32:01;9.20;99.90
15666;DHT22;20725;51.196;3.510;2022-11-15T04:34:28;9.10;99.90
15666;DHT22;20725;51.196;3.510;2022-11-15T04:36:56;9.10;99.90
15666;DHT22;20725;51.196;3.510;2022-11-15T04:39:39;9.00;99.90
15666;DHT22;20725;51.196;3.510;2022-11-15T04:42:07;9.00;99.90
15666;DHT22;20725;51.196;3.510;2022-11-15T04:44:33;8.90;99.90
15666;DHT22;20725;51.196;3.510;2022-11-15T04:47:01;8.80;99.90
15666;DHT22;20725;51.196;3.510;2022-11-15T04:49:28;8.80;99.90
15666;DHT22;20725;51.196;3.510;2022-11-15T04:51:56;8.70;99.90
15666;DHT22;20725;51.196;3.510;2022-11-15T04:54:23;8.80;99.90
15666;DHT22;20725;51.196;3.510;2022-11-15T04:56:50;8.70;99.90
15666;DHT22;20725;51.196;3.510;2022-11-15T04:59:17;8.70;99.90
15666;DHT22;20725;51.196;3.510;2022-11-15T05:01:44;8.70;99.90
15666;DHT22;20725;51.196;3.510;2022-11-15T05:04:11;8.80;99.90
15666;DHT22;20725;51.196;3.510;2022-11-15T05:06:47;8.70;99.90
15666;DHT22;20725;51.196;3.510;2022-11-15T05:09:16;8.80;99.90
15666;DHT22;20725;51.196;3.510;2022-11-15T05:11:43;8.80;99.90
15666;DHT22;20725;51.196;3.510;2022-11-15T05:14:10;8.80;99.90
15666;DHT22;20725;51.196;3.510;2022-11-15T05:16:37;8.70;99.90
15666;DHT22;20725;51.196;3.510;2022-11-15T05:19:04;8.70;99.90
15666;DHT22;20725;51.196;3.510;2022-11-15T05:21:32;8.70;99.90
15666;DHT22;20725;51.196;3.510;2022-11-15T05:23:59;8.70;99.90
15666;DHT22;20725;51.196;3.510;2022-11-15T05:26:28;8.60;99.90
15666;DHT22;20725;51.196;3.510;2022-11-15T05:28:57;8.60;99.90
15666;DHT22;20725;51.196;3.510;2022-11-15T05:31:25;8.60;99.90
15666;DHT22;20725;51.196;3.510;2022-11-15T05:33:54;8.60;99.90
15666;DHT22;20725;51.196;3.510;2022-11-15T05:36:27;8.60;99.90
15666;DHT22;20725;51.196;3.510;2022-11-15T05:38:54;8.60;99.90
15666;DHT22;20725;51.196;3.510;2022-11-15T05:41:28;8.50;99.90
15666;DHT22;20725;51.196;3.510;2022-11-15T05:43:57;8.50;99.90
15666;DHT22;20725;51.196;3.510;2022-11-15T05:46:25;8.50;99.90
15666;DHT22;20725;51.196;3.510;2022-11-15T05:48:53;8.50;99.90
15666;DHT22;20725;51.196;3.510;2022-11-15T05:51:22;8.50;99.90
15666;DHT22;20725;51.196;3.510;2022-11-15T05:53:50;8.50;99.90
15666;DHT22;20725;51.196;3.510;2022-11-15T05:56:17;8.50;99.90
15666;DHT22;20725;51.196;3.510;2022-11-15T05:58:46;8.40;99.90
15666;DHT22;20725;51.196;3.510;2022-11-15T06:01:13;8.40;99.90
15666;DHT22;20725;51.196;3.510;2022-11-15T06:03:40;8.40;99.90
15666;DHT22;20725;51.196;3.510;2022-11-15T06:06:07;8.40;99.90
15666;DHT22;20725;51.196;3.510;2022-11-15T06:08:34;8.40;99.90
15666;DHT22;20725;51.196;3.510;2022-11-15T06:11:04;8.40;99.90
15666;DHT22;20725;51.196;3.510;2022-11-15T06:13:32;8.30;99.90
15666;DHT22;20725;51.196;3.510;2022-11-15T06:16:00;8.40;99.90
15666;DHT22;20725;51.196;3.510;2022-11-15T06:18:28;8.30;99.90
15666;DHT22;20725;51.196;3.510;2022-11-15T06:20:58;8.20;99.90
15666;DHT22;20725;51.196;3.510;2022-11-15T06:23:26;8.20;99.90
15666;DHT22;20725;51.196;3.510;2022-11-15T06:25:53;8.10;99.90
15666;DHT22;20725;51.196;3.510;2022-11-15T06:28:20;8.10;99.90
15666;DHT22;20725;51.196;3.510;2022-11-15T06:30:47;8.00;99.90
15666;DHT22;20725;51.196;3.510;2022-11-15T06:33:15;7.90;99.90
15666;DHT22;20725;51.196;3.510;2022-11-15T06:35:42;7.90;99.90
15666;DHT22;20725;51.196;3.510;2022-11-15T06:38:10;7.90;99.90
15666;DHT22;20725;51.196;3.510;2022-11-15T06:40:38;7.90;99.90
15666;DHT22;20725;51.196;3.510;2022-11-15T06:43:06;8.00;99.90
15666;DHT22;20725;51.196;3.510;2022-11-15T06:45:33;8.00;99.90
15666;DHT22;20725;51.196;3.510;2022-11-15T06:48:00;8.10;99.90
15666;DHT22;20725;51.196;3.510;2022-11-15T06:50:29;8.10;99.90
15666;DHT22;20725;51.196;3.510;2022-11-15T06:53:00;8.10;99.90
15666;DHT22;20725;51.196;3.510;2022-11-15T06:55:27;8.10;99.90
15666;DHT22;20725;51.196;3.510;2022-11-15T06:57:54;8.10;99.90
15666;DHT22;20725;51.196;3.510;2022-11-15T07:00:22;8.10;99.90
15666;DHT22;20725;51.196;3.510;2022-11-15T07:02:49;8.10;99.90
15666;DHT22;20725;51.196;3.510;2022-11-15T07:05:16;8.20;99.90
15666;DHT22;20725;51.196;3.510;2022-11-15T07:07:51;8.10;99.90
15666;DHT22;20725;51.196;3.510;2022-11-15T07:10:18;8.10;99.90
15666;DHT22;20725;51.196;3.510;2022-11-15T07:12:47;8.10;99.90
15666;DHT22;20725;51.196;3.510;2022-11-15T07:15:14;8.10;99.90
15666;DHT22;20725;51.196;3.510;2022-11-15T07:17:41;8.10;99.90
15666;DHT22;20725;51.196;3.510;2022-11-15T07:20:09;8.20;99.90
15666;DHT22;20725;51.196;3.510;2022-11-15T07:22:36;8.10;99.90
15666;DHT22;20725;51.196;3.510;2022-11-15T07:25:05;8.20;99.90
15666;DHT22;20725;51.196;3.510;2022-11-15T07:27:32;8.20;99.90
15666;DHT22;20725;51.196;3.510;2022-11-15T07:29:59;8.30;99.90
15666;DHT22;20725;51.196;3.510;2022-11-15T07:32:26;8.40;99.90
15666;DHT22;20725;51.196;3.510;2022-11-15T07:34:54;8.40;99.90
15666;DHT22;20725;51.196;3.510;2022-11-15T07:37:20;8.50;99.90
15666;DHT22;20725;51.196;3.510;2022-11-15T07:39:47;8.50;99.90
15666;DHT22;20725;51.196;3.510;2022-11-15T07:42:16;8.60;99.90
15666;DHT22;20725;51.196;3.510;2022-11-15T07:45:03;8.70;99.90
15666;DHT22;20725;51.196;3.510;2022-11-15T07:47:30;8.80;99.90
15666;DHT22;20725;51.196;3.510;2022-11-15T07:49:58;8.90;99.90
15666;DHT22;20725;51.196;3.510;2022-11-15T07:52:25;8.90;99.90
15666;DHT22;20725;51.196;3.510;2022-11-15T07:55:10;9.00;99.90
15666;DHT22;20725;51.196;3.510;2022-11-15T07:57:41;9.00;99.90
15666;DHT22;20725;51.196;3.510;2022-11-15T08:00:10;9.00;99.90
15666;DHT22;20725;51.196;3.510;2022-11-15T08:02:37;9.00;99.90
15666;DHT22;20725;51.196;3.510;2022-11-15T08:05:05;9.10;99.90
15666;DHT22;20725;51.196;3.510;2022-11-15T08:07:32;9.10;99.90
15666;DHT22;20725;51.196;3.510;2022-11-15T08:09:59;9.20;99.90
15666;DHT22;20725;51.196;3.510;2022-11-15T08:12:27;9.30;99.90
15666;DHT22;20725;51.196;3.510;2022-11-15T08:14:55;9.40;99.90
15666;DHT22;20725;51.196;3.510;2022-11-15T08:17:22;9.50;99.90
15666;DHT22;20725;51.196;3.510;2022-11-15T08:19:50;9.80;99.90
15666;DHT22;20725;51.196;3.510;2022-11-15T08:22:17;10.10;99.90
15666;DHT22;20725;51.196;3.510;2022-11-15T08:24:44;10.30;99.90
15666;DHT22;20725;51.196;3.510;2022-11-15T08:27:11;10.40;99.90
15666;DHT22;20725;51.196;3.510;2022-11-15T08:32:11;10.40;99.90
15666;DHT22;20725;51.196;3.510;2022-11-15T08:34:41;10.30;99.90
15666;DHT22;20725;51.196;3.510;2022-11-15T08:37:11;10.30;99.90
15666;DHT22;20725;51.196;3.510;2022-11-15T08:39:37;10.40;99.90
15666;DHT22;20725;51.196;3.510;2022-11-15T08:42:04;10.40;99.90
15666;DHT22;20725;51.196;3.510;2022-11-15T08:44:32;10.30;99.90
15666;DHT22;20725;51.196;3.510;2022-11-15T08:46:59;10.20;99.90
15666;DHT22;20725;51.196;3.510;2022-11-15T08:49:28;10.20;99.90
15666;DHT22;20725;51.196;3.510;2022-11-15T08:51:56;10.20;99.90
15666;DHT22;20725;51.196;3.510;2022-11-15T08:54:23;10.20;99.90
15666;DHT22;20725;51.196;3.510;2022-11-15T08:56:50;10.30;99.90
15666;DHT22;20725;51.196;3.510;2022-11-15T08:59:17;10.30;99.90
15666;DHT22;20725;51.196;3.510;2022-11-15T09:01:44;10.50;99.90
15666;DHT22;20725;51.196;3.510;2022-11-15T09:04:11;10.70;99.90
15666;DHT22;20725;51.196;3.510;2022-11-15T09:06:39;11.10;99.90
15666;DHT22;20725;51.196;3.510;2022-11-15T09:09:07;11.20;99.90
15666;DHT22;20725;51.196;3.510;2022-11-15T09:11:35;11.30;99.90
15666;DHT22;20725;51.196;3.510;2022-11-15T09:14:02;11.70;99.90
15666;DHT22;20725;51.196;3.510;2022-11-15T09:16:31;12.00;99.90
15666;DHT22;20725;51.196;3.510;2022-11-15T09:18:58;12.60;99.90
15666;DHT22;20725;51.196;3.510;2022-11-15T09:21:25;13.90;99.90
15666;DHT22;20725;51.196;3.510;2022-11-15T09:23:53;13.70;99.90
15666;DHT22;20725;51.196;3.510;2022-11-15T09:26:20;13.50;99.90
15666;DHT22;20725;51.196;3.510;2022-11-15T09:28:47;14.10;99.90
15666;DHT22;20725;51.196;3.510;2022-11-15T09:31:14;14.80;99.90
15666;DHT22;20725;51.196;3.510;2022-11-15T09:33:43;15.60;99.90
15666;DHT22;20725;51.196;3.510;2022-11-15T09:36:10;15.80;99.90
15666;DHT22;20725;51.196;3.510;2022-11-15T09:38:37;15.10;99.90
15666;DHT22;20725;51.196;3.510;2022-11-15T09:41:22;14.80;99.90
15666;DHT22;20725;51.196;3.510;2022-11-15T09:43:58;14.80;99.90
15666;DHT22;20725;51.196;3.510;2022-11-15T09:46:35;16.00;99.90
15666;DHT22;20725;51.196;3.510;2022-11-15T09:49:04;16.40;99.90
15666;DHT22;20725;51.196;3.510;2022-11-15T09:51:34;15.90;99.90
15666;DHT22;20725;51.196;3.510;2022-11-15T09:54:21;16.30;99.90
15666;DHT22;20725;51.196;3.510;2022-11-15T09:56:50;17.70;99.60
15666;DHT22;20725;51.196;3.510;2022-11-15T09:59:43;18.80;96.50
15666;DHT22;20725;51.196;3.510;2022-11-15T10:02:21;20.90;92.50
15666;DHT22;20725;51.196;3.510;2022-11-15T10:04:50;20.90;88.40
15666;DHT22;20725;51.196;3.510;2022-11-15T10:07:20;19.60;91.00
15666;DHT22;20725;51.196;3.510;2022-11-15T10:09:53;18.70;90.90
15666;DHT22;20725;51.196;3.510;2022-11-15T10:12:24;19.50;91.00
15666;DHT22;20725;51.196;3.510;2022-11-15T10:15:05;18.70;91.10
15666;DHT22;20725;51.196;3.510;2022-11-15T10:20:46;18.50;92.00
15666;DHT22;20725;51.196;3.510;2022-11-15T10:23:15;18.80;91.50
15666;DHT22;20725;51.196;3.510;2022-11-15T10:25:43;18.90;90.60
15666;DHT22;20725;51.196;3.510;2022-11-15T10:28:14;19.60;87.70
15666;DHT22;20725;51.196;3.510;2022-11-15T10:30:43;19.90;89.90
15666;DHT22;20725;51.196;3.510;2022-11-15T10:33:22;19.80;90.00
15666;DHT22;20725;51.196;3.510;2022-11-15T10:36:14;19.70;84.00
15666;DHT22;20725;51.196;3.510;2022-11-15T10:38:52;19.30;85.10
15666;DHT22;20725;51.196;3.510;2022-11-15T10:41:21;18.80;89.10
15666;DHT22;20725;51.196;3.510;2022-11-15T10:44:17;18.80;87.40
15666;DHT22;20725;51.196;3.510;2022-11-15T10:46:45;18.80;85.00
15666;DHT22;20725;51.196;3.510;2022-11-15T10:49:16;20.20;85.50
15666;DHT22;20725;51.196;3.510;2022-11-15T10:51:46;20.30;81.20
15666;DHT22;20725;51.196;3.510;2022-11-15T10:54:19;20.30;80.80
15666;DHT22;20725;51.196;3.510;2022-11-15T10:56:50;18.40;86.50
15666;DHT22;20725;51.196;3.510;2022-11-15T10:59:24;18.00;86.70
15666;DHT22;20725;51.196;3.510;2022-11-15T11:01:52;17.90;87.80
15666;DHT22;20725;51.196;3.510;2022-11-15T11:04:19;17.70;90.30
15666;DHT22;20725;51.196;3.510;2022-11-15T11:06:47;17.50;89.80
15666;DHT22;20725;51.196;3.510;2022-11-15T11:09:23;17.70;91.00
15666;DHT22;20725;51.196;3.510;2022-11-15T11:11:52;19.00;88.00
15666;DHT22;20725;51.196;3.510;2022-11-15T11:14:23;17.10;90.50
15666;DHT22;20725;51.196;3.510;2022-11-15T11:16:55;17.00;91.60
15666;DHT22;20725;51.196;3.510;2022-11-15T11:22:32;15.40;95.40
15666;DHT22;20725;51.196;3.510;2022-11-15T11:25:12;14.90;96.80
15666;DHT22;20725;51.196;3.510;2022-11-15T11:27:52;14.00;99.10
15666;DHT22;20725;51.196;3.510;2022-11-15T11:30:32;14.10;99.90
15666;DHT22;20725;51.196;3.510;2022-11-15T11:33:13;13.80;99.90
15666;DHT22;20725;51.196;3.510;2022-11-15T11:35:50;13.70;99.90
15666;DHT22;20725;51.196;3.510;2022-11-15T11:38:42;13.60;99.90
15666;DHT22;20725;51.196;3.510;2022-11-15T11:41:17;13.60;99.90
15666;DHT22;20725;51.196;3.510;2022-11-15T11:43:53;13.40;99.90
15666;DHT22;20725;51.196;3.510;2022-11-15T11:46:41;13.30;99.90
15666;DHT22;20725;51.196;3.510;2022-11-15T11:49:16;13.70;99.90
15666;DHT22;20725;51.196;3.510;2022-11-15T11:51:48;13.70;99.90
15666;DHT22;20725;51.196;3.510;2022-11-15T11:54:20;13.50;99.90
15666;DHT22;20725;51.196;3.510;2022-11-15T11:56:50;13.50;99.90
15666;DHT22;20725;51.196;3.510;2022-11-15T11:59:25;13.40;99.90
15666;DHT22;20725;51.196;3.510;2022-11-15T12:01:58;13.20;99.90
15666;DHT22;20725;51.196;3.510;2022-11-15T12:04:29;13.20;99.90
15666;DHT22;20725;51.196;3.510;2022-11-15T12:07:01;13.20;99.90
15666;DHT22;20725;51.196;3.510;2022-11-15T12:09:32;13.10;99.90
15666;DHT22;20725;51.196;3.510;2022-11-15T12:12:05;13.00;99.90
15666;DHT22;20725;51.196;3.510;2022-11-15T12:14:40;13.10;99.90
15666;DHT22;20725;51.196;3.510;2022-11-15T12:17:11;13.20;99.90
15666;DHT22;20725;51.196;3.510;2022-11-15T12:19:39;13.10;99.90
15666;DHT22;20725;51.196;3.510;2022-11-15T12:22:15;13.20;99.90
15666;DHT22;20725;51.196;3.510;2022-11-15T12:24:48;13.20;99.90
15666;DHT22;20725;51.196;3.510;2022-11-15T12:27:19;13.20;99.90
15666;DHT22;20725;51.196;3.510;2022-11-15T12:29:51;13.10;99.90
15666;DHT22;20725;51.196;3.510;2022-11-15T12:32:28;13.10;99.90
15666;DHT22;20725;51.196;3.510;2022-11-15T12:34:56;13.20;99.90
15666;DHT22;20725;51.196;3.510;2022-11-15T12:37:48;13.20;99.90
15666;DHT22;20725;51.196;3.510;2022-11-15T12:40:19;13.00;99.90
15666;DHT22;20725;51.196;3.510;2022-11-15T12:45:51;13.10;99.90
15666;DHT22;20725;51.196;3.510;2022-11-15T12:54:52;13.20;99.90
15666;DHT22;20725;51.196;3.510;2022-11-15T12:57:32;13.20;99.90
15666;DHT22;20725;51.196;3.510;2022-11-15T13:00:01;13.30;99.90
15666;DHT22;20725;51.196;3.510;2022-11-15T13:02:30;13.10;99.90
15666;DHT22;20725;51.196;3.510;2022-11-15T13:08:02;13.00;99.90
15666;DHT22;20725;51.196;3.510;2022-11-15T13:10:30;12.90;99.90
15666;DHT22;20725;51.196;3.510;2022-11-15T13:12:58;13.00;99.90
15666;DHT22;20725;51.196;3.510;2022-11-15T13:15:55;13.00;99.90
15666;DHT22;20725;51.196;3.510;2022-11-15T13:18:43;13.00;99.90
15666;DHT22;20725;51.196;3.510;2022-11-15T13:21:21;13.00;99.90
15666;DHT22;20725;51.196;3.510;2022-11-15T13:24:13;12.80;99.90
15666;DHT22;20725;51.196;3.510;2022-11-15T13:26:40;12.60;99.90
15666;DHT22;20725;51.196;3.510;2022-11-15T13:29:15;12.40;99.90
15666;DHT22;20725;51.196;3.510;2022-11-15T13:31:43;12.30;99.90
15666;DHT22;20725;51.196;3.510;2022-11-15T13:34:21;12.20;99.90
15666;DHT22;20725;51.196;3.510;2022-11-15T13:36:49;12.30;99.90
15666;DHT22;20725;51.196;3.510;2022-11-15T13:39:27;12.40;99.90
15666;DHT22;20725;51.196;3.510;2022-11-15T13:41:54;12.40;99.90
15666;DHT22;20725;51.196;3.510;2022-11-15T13:44:22;12.30;99.90
15666;DHT22;20725;51.196;3.510;2022-11-15T13:47:01;12.20;99.90
15666;DHT22;20725;51.196;3.510;2022-11-15T13:49:29;12.10;99.90
15666;DHT22;20725;51.196;3.510;2022-11-15T13:51:57;12.10;99.90
15666;DHT22;20725;51.196;3.510;2022-11-15T13:54:28;12.10;99.90
15666;DHT22;20725;51.196;3.510;2022-11-15T13:56:59;11.90;99.90
15666;DHT22;20725;51.196;3.510;2022-11-15T13:59:30;11.80;99.90
15666;DHT22;20725;51.196;3.510;2022-11-15T14:01:59;11.70;99.90
15666;DHT22;20725;51.196;3.510;2022-11-15T14:04:29;11.50;99.90
15666;DHT22;20725;51.196;3.510;2022-11-15T14:06:59;11.30;99.90
15666;DHT22;20725;51.196;3.510;2022-11-15T14:09:35;11.20;99.90
15666;DHT22;20725;51.196;3.510;2022-11-15T14:12:26;11.30;99.90
15666;DHT22;20725;51.196;3.510;2022-11-15T14:14:54;11.20;99.90
15666;DHT22;20725;51.196;3.510;2022-11-15T14:17:34;11.20;99.90
15666;DHT22;20725;51.196;3.510;2022-11-15T14:20:01;11.10;99.90
15666;DHT22;20725;51.196;3.510;2022-11-15T14:22:29;11.10;99.90
15666;DHT22;20725;51.196;3.510;2022-11-15T14:25:16;10.90;99.90
15666;DHT22;20725;51.196;3.510;2022-11-15T14:28:07;10.80;99.90
15666;DHT22;20725;51.196;3.510;2022-11-15T14:30:31;10.70;99.90
15666;DHT22;20725;51.196;3.510;2022-11-15T14:32:58;10.60;99.90
15666;DHT22;20725;51.196;3.510;2022-11-15T14:35:25;10.50;99.90
15666;DHT22;20725;51.196;3.510;2022-11-15T14:37:52;10.50;99.90
15666;DHT22;20725;51.196;3.510;2022-11-15T14:40:22;10.40;99.90
15666;DHT22;20725;51.196;3.510;2022-11-15T14:42:49;10.30;99.90
15666;DHT22;20725;51.196;3.510;2022-11-15T14:45:19;10.40;99.90
15666;DHT22;20725;51.196;3.510;2022-11-15T14:47:47;10.30;99.90
15666;DHT22;20725;51.196;3.510;2022-11-15T14:50:22;10.40;99.90
15666;DHT22;20725;51.196;3.510;2022-11-15T14:57:49;10.50;99.90
15666;DHT22;20725;51.196;3.510;2022-11-15T15:00:19;10.20;99.90
15666;DHT22;20725;51.196;3.510;2022-11-15T15:02:47;10.30;99.90
15666;DHT22;20725;51.196;3.510;2022-11-15T15:05:16;10.10;99.90
15666;DHT22;20725;51.196;3.510;2022-11-15T15:07:44;10.70;99.90
15666;DHT22;20725;51.196;3.510;2022-11-15T15:10:12;11.40;99.90
15666;DHT22;20725;51.196;3.510;2022-11-15T15:12:39;11.10;99.90
15666;DHT22;20725;51.196;3.510;2022-11-15T15:15:12;11.30;99.90
15666;DHT22;20725;51.196;3.510;2022-11-15T15:17:40;11.50;99.90
15666;DHT22;20725;51.196;3.510;2022-11-15T15:20:08;11.20;99.90
15666;DHT22;20725;51.196;3.510;2022-11-15T15:22:36;11.30;99.90
15666;DHT22;20725;51.196;3.510;2022-11-15T15:25:29;11.20;99.90
15666;DHT22;20725;51.196;3.510;2022-11-15T15:27:57;11.20;99.90
15666;DHT22;20725;51.196;3.510;2022-11-15T15:30:31;11.50;99.90
15666;DHT22;20725;51.196;3.510;2022-11-15T15:32:59;11.20;99.90
15666;DHT22;20725;51.196;3.510;2022-11-15T15:35:29;11.30;99.90
15666;DHT22;20725;51.196;3.510;2022-11-15T15:37:57;11.70;99.90
15666;DHT22;20725;51.196;3.510;2022-11-15T15:40:26;11.70;99.90
15666;DHT22;20725;51.196;3.510;2022-11-15T15:42:53;11.40;99.90
15666;DHT22;20725;51.196;3.510;2022-11-15T15:45:20;11.70;99.90
15666;DHT22;20725;51.196;3.510;2022-11-15T15:47:49;11.50;99.90
15666;DHT22;20725;51.196;3.510;2022-11-15T15:50:22;11.90;99.90
15666;DHT22;20725;51.196;3.510;2022-11-15T15:52:49;11.70;99.90
15666;DHT22;20725;51.196;3.510;2022-11-15T15:55:16;11.90;99.90
15666;DHT22;20725;51.196;3.510;2022-11-15T15:57:43;11.80;99.90
15666;DHT22;20725;51.196;3.510;2022-11-15T16:00:11;11.50;99.90
15666;DHT22;20725;51.196;3.510;2022-11-15T16:02:38;11.50;99.90
15666;DHT22;20725;51.196;3.510;2022-11-15T16:05:07;11.50;99.90
15666;DHT22;20725;51.196;3.510;2022-11-15T16:07:34;11.90;99.90
15666;DHT22;20725;51.196;3.510;2022-11-15T16:10:01;11.90;99.90
15666;DHT22;20725;51.196;3.510;2022-11-15T16:12:30;11.70;99.90
15666;DHT22;20725;51.196;3.510;2022-11-15T16:14:57;11.70;99.90
15666;DHT22;20725;51.196;3.510;2022-11-15T16:17:26;11.80;99.90
15666;DHT22;20725;51.196;3.510;2022-11-15T16:19:53;11.90;99.90
15666;DHT22;20725;51.196;3.510;2022-11-15T16:22:21;11.80;99.90
15666;DHT22;20725;51.196;3.510;2022-11-15T16:24:48;12.00;99.90
15666;DHT22;20725;51.196;3.510;2022-11-15T16:27:16;11.70;99.90
15666;DHT22;20725;51.196;3.510;2022-11-15T16:29:43;12.10;99.90
15666;DHT22;20725;51.196;3.510;2022-11-15T16:32:10;12.10;99.90